createdAt,value
2023-01-17T00:01:16.259Z,5.65
2023-01-17T00:04:01.786Z,6.07
2023-01-17T00:06:48.402Z,5.95
2023-01-17T00:09:37.284Z,6.10
2023-01-17T00:12:05.862Z,5.95
2023-01-17T00:14:33.574Z,5.75
2023-01-17T00:17:01.875Z,6.40
2023-01-17T00:19:47.319Z,5.80
2023-01-17T00:22:44.481Z,5.93
2023-01-17T00:25:35.482Z,6.45
2023-01-17T00:28:02.491Z,5.65
2023-01-17T00:30:30.284Z,5.68
2023-01-17T00:32:57.709Z,5.25
2023-01-17T00:35:25.840Z,5.20
2023-01-17T00:38:05.175Z,5.15
2023-01-17T00:40:33.401Z,4.93
2023-01-17T00:43:22.081Z,4.80
2023-01-17T00:46:08.344Z,5.70
2023-01-17T00:48:54.611Z,6.15
2023-01-17T00:51:42.019Z,5.18
2023-01-17T00:54:28.068Z,5.35
2023-01-17T00:57:14.275Z,6.28
2023-01-17T00:59:59.798Z,5.43
2023-01-17T01:02:46.339Z,6.15
2023-01-17T01:05:33.799Z,5.72
2023-01-17T01:08:20.092Z,5.78
2023-01-17T01:11:06.961Z,5.38
2023-01-17T01:13:56.455Z,5.63
2023-01-17T01:16:42.553Z,4.80
2023-01-17T01:19:28.498Z,5.57
2023-01-17T01:22:13.980Z,5.10
2023-01-17T01:25:02.826Z,6.00
2023-01-17T01:27:48.371Z,4.95
2023-01-17T01:30:34.589Z,4.25
2023-01-17T01:33:20.436Z,4.90
2023-01-17T01:35:49.841Z,4.82
2023-01-17T01:38:21.101Z,5.43
2023-01-17T01:40:50.697Z,5.22
2023-01-17T01:43:21.350Z,5.00
2023-01-17T01:45:55.766Z,4.53
2023-01-17T01:48:38.830Z,5.40
2023-01-17T01:51:13.927Z,5.97
2023-01-17T01:53:48.585Z,4.72
2023-01-17T01:56:19.254Z,4.45
2023-01-17T01:58:50.908Z,4.97
2023-01-17T02:01:19.298Z,4.78
2023-01-17T02:03:47.772Z,5.10
2023-01-17T02:06:25.909Z,4.60
2023-01-17T02:08:53.345Z,4.97
2023-01-17T02:11:21.093Z,5.53
2023-01-17T02:13:51.124Z,5.82
2023-01-17T02:16:31.046Z,4.80
2023-01-17T02:19:38.831Z,4.68
2023-01-17T02:22:27.273Z,4.72
2023-01-17T02:25:02.716Z,5.43
2023-01-17T02:27:56.738Z,4.88
2023-01-17T02:30:35.816Z,4.60
2023-01-17T02:33:25.521Z,5.05
2023-01-17T02:36:10.265Z,4.65
2023-01-17T02:39:09.502Z,4.90
2023-01-17T02:41:51.589Z,4.50
2023-01-17T02:44:20.805Z,4.53
2023-01-17T02:46:54.016Z,5.65
2023-01-17T02:49:26.212Z,5.30
2023-01-17T02:52:16.269Z,5.82
2023-01-17T02:55:16.658Z,5.95
2023-01-17T02:58:13.328Z,6.10
2023-01-17T03:01:12.688Z,6.55
2023-01-17T03:04:06.465Z,7.05
2023-01-17T03:06:56.466Z,6.35
2023-01-17T03:09:25.577Z,7.50
2023-01-17T03:11:55.978Z,7.55
2023-01-17T03:14:22.943Z,7.97
2023-01-17T03:16:50.434Z,6.43
2023-01-17T03:19:17.527Z,8.30
2023-01-17T03:21:44.505Z,7.82
2023-01-17T03:24:20.697Z,7.45
2023-01-17T03:26:48.048Z,8.77
2023-01-17T03:29:16.738Z,8.30
2023-01-17T03:31:47.013Z,8.32
2023-01-17T03:34:14.605Z,8.52
2023-01-17T03:36:41.767Z,8.35
2023-01-17T03:39:08.796Z,8.27
2023-01-17T03:41:35.872Z,8.05
2023-01-17T03:44:02.777Z,8.95
2023-01-17T03:46:44.337Z,8.13
2023-01-17T03:49:19.899Z,8.43
2023-01-17T03:52:11.151Z,8.20
2023-01-17T03:57:33.893Z,8.13
2023-01-17T04:00:24.558Z,8.57
2023-01-17T04:02:51.615Z,8.65
2023-01-17T04:05:18.672Z,8.40
2023-01-17T04:07:48.831Z,9.30
2023-01-17T04:10:22.012Z,9.13
2023-01-17T04:12:49.121Z,8.70
2023-01-17T04:15:16.295Z,8.70
2023-01-17T04:17:43.821Z,8.85
2023-01-17T04:20:33.714Z,8.15
2023-01-17T04:23:00.889Z,8.05
2023-01-17T04:25:30.163Z,8.10
2023-01-17T04:27:58.708Z,7.15
2023-01-17T04:30:26.127Z,7.93
2023-01-17T04:32:53.394Z,8.18
2023-01-17T04:35:20.678Z,7.32
2023-01-17T04:37:47.689Z,7.03
2023-01-17T04:40:18.246Z,7.65
2023-01-17T04:42:45.597Z,7.15
2023-01-17T04:45:14.234Z,7.32
2023-01-17T04:47:41.415Z,7.45
2023-01-17T04:50:09.986Z,7.10
2023-01-17T04:52:37.163Z,7.18
2023-01-17T04:55:04.454Z,7.45
2023-01-17T04:57:31.616Z,7.38
2023-01-17T04:59:58.573Z,7.78
2023-01-17T05:02:25.558Z,7.18
2023-01-17T05:04:52.612Z,7.18
2023-01-17T05:07:19.688Z,7.28
2023-01-17T05:09:47.688Z,10.50
2023-01-17T05:12:14.482Z,20.98
2023-01-17T05:14:41.250Z,20.30
2023-01-17T05:17:08.297Z,16.83
2023-01-17T05:19:35.182Z,14.43
2023-01-17T05:22:04.205Z,15.98
2023-01-17T05:24:32.421Z,14.10
2023-01-17T05:27:03.927Z,13.40
2023-01-17T05:29:31.034Z,12.98
2023-01-17T05:31:58.069Z,18.52
2023-01-17T05:34:25.207Z,19.92
2023-01-17T05:36:52.427Z,18.73
2023-01-17T05:39:19.336Z,15.50
2023-01-17T05:41:46.430Z,14.38
2023-01-17T05:44:13.552Z,10.88
2023-01-17T05:46:40.646Z,10.25
2023-01-17T05:49:07.969Z,10.45
2023-01-17T05:51:37.806Z,10.27
2023-01-17T05:54:05.580Z,10.80
2023-01-17T05:56:33.248Z,12.43
2023-01-17T05:59:00.416Z,13.93
2023-01-17T06:01:27.761Z,15.45
2023-01-17T06:03:54.677Z,12.50
2023-01-17T06:06:22.407Z,11.30
2023-01-17T06:08:49.366Z,11.50
2023-01-17T06:11:16.280Z,13.55
2023-01-17T06:13:43.220Z,13.98
2023-01-17T06:16:10.229Z,12.85
2023-01-17T06:18:37.288Z,12.32
2023-01-17T06:21:09.005Z,11.52
2023-01-17T06:23:36.022Z,10.35
2023-01-17T06:26:04.620Z,9.27
2023-01-17T06:28:31.792Z,10.23
2023-01-17T06:31:00.009Z,10.10
2023-01-17T06:33:27.080Z,10.43
2023-01-17T06:35:54.893Z,9.88
2023-01-17T06:38:21.929Z,10.55
2023-01-17T06:40:49.113Z,11.88
2023-01-17T06:43:16.034Z,10.68
2023-01-17T06:45:43.049Z,11.02
2023-01-17T06:48:10.203Z,10.50
2023-01-17T06:50:38.100Z,10.32
2023-01-17T06:53:07.106Z,10.55
2023-01-17T06:55:35.016Z,11.27
2023-01-17T06:58:03.096Z,10.07
2023-01-17T07:00:31.524Z,10.50
2023-01-17T07:02:58.728Z,11.10
2023-01-17T07:05:27.453Z,11.15
2023-01-17T07:07:54.908Z,10.23
2023-01-17T07:10:22.161Z,13.80
2023-01-17T07:12:49.379Z,11.13
2023-01-17T07:15:16.375Z,10.80
2023-01-17T07:17:43.244Z,10.57
2023-01-17T07:20:10.532Z,10.15
2023-01-17T07:22:37.875Z,11.73
2023-01-17T07:25:05.334Z,12.10
2023-01-17T07:27:33.726Z,10.93
2023-01-17T07:30:01.071Z,10.77
2023-01-17T07:32:28.402Z,10.70
2023-01-17T07:34:57.750Z,9.35
2023-01-17T07:37:26.406Z,11.60
2023-01-17T07:39:54.754Z,10.93
2023-01-17T07:42:24.085Z,10.40
2023-01-17T07:44:52.169Z,10.88
2023-01-17T07:47:20.138Z,10.43
2023-01-17T07:49:47.645Z,10.77
2023-01-17T07:52:16.295Z,11.27
2023-01-17T07:54:44.479Z,10.82
2023-01-17T07:57:14.774Z,10.05
2023-01-17T07:59:41.608Z,10.18
2023-01-17T08:02:18.174Z,9.82
2023-01-17T08:04:46.737Z,10.02
2023-01-17T08:07:14.800Z,10.70
2023-01-17T08:09:49.738Z,10.27
2023-01-17T08:12:17.695Z,10.15
2023-01-17T08:14:45.114Z,10.82
2023-01-17T08:17:18.151Z,11.43
2023-01-17T08:19:45.200Z,11.95
2023-01-17T08:22:12.456Z,11.40
2023-01-17T08:24:39.367Z,13.02
2023-01-17T08:27:06.247Z,12.15
2023-01-17T08:29:33.243Z,11.75
2023-01-17T08:32:00.315Z,12.45
2023-01-17T08:34:27.265Z,11.10
2023-01-17T08:36:54.470Z,10.90
2023-01-17T08:39:22.018Z,12.60
2023-01-17T08:41:48.873Z,10.98
2023-01-17T08:44:15.971Z,10.45
2023-01-17T08:46:44.280Z,11.57
2023-01-17T08:49:11.942Z,10.85
2023-01-17T08:51:38.977Z,12.73
2023-01-17T08:54:06.325Z,11.90
2023-01-17T08:56:34.182Z,12.07
2023-01-17T08:59:03.136Z,11.52
2023-01-17T09:01:30.270Z,12.95
2023-01-17T09:03:57.730Z,12.40
2023-01-17T09:06:24.825Z,14.20
2023-01-17T09:08:54.990Z,14.30
2023-01-17T09:11:22.235Z,13.85
2023-01-17T09:13:49.263Z,14.63
2023-01-17T09:16:16.228Z,13.10
2023-01-17T09:18:43.316Z,11.48
2023-01-17T09:21:17.990Z,11.95
2023-01-17T09:23:45.666Z,12.02
2023-01-17T09:26:25.244Z,11.57
2023-01-17T09:28:52.821Z,11.15
2023-01-17T09:31:22.445Z,10.10
2023-01-17T09:33:51.120Z,12.30
2023-01-17T09:36:18.186Z,12.02
2023-01-17T09:38:45.415Z,12.88
2023-01-17T09:41:33.099Z,12.10
2023-01-17T09:44:15.089Z,11.82
2023-01-17T09:46:46.767Z,11.07
2023-01-17T09:49:32.440Z,9.98
2023-01-17T09:52:00.586Z,8.60
2023-01-17T09:54:35.111Z,8.90
2023-01-17T09:57:27.025Z,8.50
2023-01-17T10:00:21.096Z,9.23
2023-01-17T10:03:27.854Z,9.05
2023-01-17T10:06:27.112Z,8.52
2023-01-17T10:09:11.857Z,8.45
2023-01-17T10:12:09.190Z,11.35
2023-01-17T10:15:03.263Z,9.07
2023-01-17T10:17:53.256Z,8.43
2023-01-17T10:20:38.583Z,7.60
2023-01-17T10:23:44.153Z,8.35
2023-01-17T10:26:23.773Z,7.68
2023-01-17T10:28:53.077Z,7.55
2023-01-17T10:31:35.421Z,6.78
2023-01-17T10:34:17.195Z,7.05
2023-01-17T10:36:49.620Z,6.63
2023-01-17T10:39:22.048Z,7.47
2023-01-17T10:42:26.867Z,7.07
2023-01-17T10:45:04.209Z,7.03
2023-01-17T10:47:36.477Z,7.45
2023-01-17T10:50:05.277Z,7.35
2023-01-17T10:52:43.455Z,7.40
2023-01-17T10:55:13.206Z,7.47
2023-01-17T10:57:42.795Z,6.75
2023-01-17T11:00:34.565Z,7.05
2023-01-17T11:03:02.751Z,7.22
2023-01-17T11:05:32.723Z,7.90
2023-01-17T11:07:59.718Z,8.77
2023-01-17T11:10:54.277Z,7.57
2023-01-17T11:13:32.022Z,7.45
2023-01-17T11:16:06.259Z,7.88
2023-01-17T11:18:39.397Z,7.50
2023-01-17T11:21:17.130Z,8.35
2023-01-17T11:23:56.878Z,7.22
2023-01-17T11:26:34.573Z,8.00
2023-01-17T11:29:37.446Z,8.73
2023-01-17T11:32:22.654Z,8.75
2023-01-17T11:35:07.038Z,8.52
2023-01-17T11:37:35.307Z,7.35
2023-01-17T11:40:19.088Z,8.30
2023-01-17T11:42:46.159Z,6.85
2023-01-17T11:45:29.209Z,8.02
2023-01-17T11:48:08.378Z,8.48
2023-01-17T11:50:37.581Z,14.27
2023-01-17T11:53:24.368Z,12.68
2023-01-17T11:56:28.042Z,12.00
2023-01-17T11:59:16.500Z,9.68
2023-01-17T12:01:58.127Z,8.68
2023-01-17T12:04:41.562Z,7.05
2023-01-17T12:07:44.680Z,7.38
2023-01-17T12:10:32.649Z,6.97
2023-01-17T12:13:33.027Z,7.55
2023-01-17T12:16:24.874Z,7.20
2023-01-17T12:19:22.436Z,7.43
2023-01-17T12:22:01.321Z,6.53
2023-01-17T12:24:39.538Z,6.68
2023-01-17T12:27:19.355Z,7.00
2023-01-17T12:30:23.428Z,6.07
2023-01-17T12:33:21.526Z,6.90
2023-01-17T12:35:56.970Z,7.03
2023-01-17T12:38:33.392Z,5.78
2023-01-17T12:41:26.539Z,6.32
2023-01-17T12:43:59.786Z,6.05
2023-01-17T12:46:38.723Z,6.07
2023-01-17T12:49:32.333Z,6.75
2023-01-17T12:52:55.057Z,6.13
2023-01-17T12:55:40.469Z,5.50
2023-01-17T12:58:18.949Z,5.28
2023-01-17T13:00:51.547Z,5.03
2023-01-17T13:03:35.269Z,5.22
2023-01-17T13:06:03.842Z,6.15
2023-01-17T13:08:36.294Z,6.50
2023-01-17T13:11:09.552Z,6.53
2023-01-17T13:13:36.845Z,5.22
2023-01-17T13:16:21.833Z,4.35
2023-01-17T13:18:51.658Z,3.55
2023-01-17T13:21:29.660Z,4.07
2023-01-17T13:23:59.582Z,4.50
2023-01-17T13:26:29.583Z,4.10
2023-01-17T13:29:20.448Z,3.88
2023-01-17T13:32:05.624Z,4.78
2023-01-17T13:35:00.951Z,3.50
2023-01-17T13:37:58.544Z,3.42
2023-01-17T13:40:37.132Z,3.28
2023-01-17T13:43:14.512Z,3.70
2023-01-17T13:45:41.726Z,3.28
2023-01-17T13:48:31.527Z,2.95
2023-01-17T13:50:59.245Z,3.50
2023-01-17T13:53:35.080Z,2.95
2023-01-17T13:56:27.801Z,3.30
2023-01-17T13:59:03.072Z,2.58
2023-01-17T14:01:34.805Z,2.40
2023-01-17T14:04:07.843Z,1.73
2023-01-17T14:06:35.435Z,1.80
2023-01-17T14:09:08.097Z,1.55
2023-01-17T14:11:37.220Z,2.30
2023-01-17T14:14:41.080Z,1.48
2023-01-17T14:17:23.223Z,2.00
2023-01-17T14:19:51.168Z,1.90
2023-01-17T14:22:21.082Z,1.80
2023-01-17T14:25:11.051Z,2.03
2023-01-17T14:27:50.449Z,2.92
2023-01-17T14:30:18.139Z,2.30
2023-01-17T14:33:08.584Z,2.60
2023-01-17T14:35:37.421Z,2.97
2023-01-17T14:38:23.178Z,2.45
2023-01-17T14:41:04.731Z,2.60
2023-01-17T14:43:35.253Z,3.33
2023-01-17T14:46:06.616Z,3.90
2023-01-17T14:48:34.388Z,3.58
2023-01-17T14:51:01.933Z,4.85
2023-01-17T14:53:31.485Z,3.90
2023-01-17T14:56:01.753Z,3.35
2023-01-17T14:58:30.563Z,3.28
2023-01-17T15:01:03.599Z,2.90
2023-01-17T15:03:41.875Z,2.33
2023-01-17T15:06:18.887Z,2.20
2023-01-17T15:08:46.890Z,1.88
2023-01-17T15:11:35.516Z,1.95
2023-01-17T15:14:05.971Z,2.47
2023-01-17T15:16:38.235Z,2.78
2023-01-17T15:19:13.399Z,2.90
2023-01-17T15:21:43.407Z,3.22
2023-01-17T15:24:20.003Z,2.97
2023-01-17T15:26:47.690Z,2.97
2023-01-17T15:29:24.208Z,3.03
2023-01-17T15:32:03.782Z,3.60
2023-01-17T15:34:33.772Z,3.58
2023-01-17T15:37:19.875Z,3.75
2023-01-17T15:39:47.377Z,4.65
2023-01-17T15:42:25.250Z,4.88
2023-01-17T15:44:54.777Z,6.95
2023-01-17T15:47:28.193Z,9.77
2023-01-17T15:49:55.616Z,10.25
2023-01-17T15:52:22.721Z,9.55
2023-01-17T15:54:53.457Z,8.43
2023-01-17T15:57:37.050Z,6.10
2023-01-17T16:00:09.044Z,5.63
2023-01-17T16:02:43.652Z,4.57
2023-01-17T16:05:26.096Z,4.90
2023-01-17T16:07:56.742Z,6.85
2023-01-17T16:10:28.226Z,6.60
2023-01-17T16:12:56.243Z,7.18
2023-01-17T16:15:24.459Z,7.22
2023-01-17T16:18:14.909Z,9.48
2023-01-17T16:20:53.288Z,12.38
2023-01-17T16:23:20.545Z,16.83
2023-01-17T16:25:48.221Z,17.10
2023-01-17T16:28:15.843Z,14.32
2023-01-17T16:30:44.643Z,11.20
2023-01-17T16:33:15.286Z,8.65
2023-01-17T16:35:43.074Z,7.72
2023-01-17T16:38:19.809Z,10.18
2023-01-17T16:40:48.049Z,7.55
2023-01-17T16:43:18.590Z,7.88
2023-01-17T16:45:52.763Z,10.27
2023-01-17T16:48:20.669Z,7.45
2023-01-17T16:58:53.486Z,11.17
2023-01-17T17:01:22.752Z,8.32
2023-01-17T17:03:50.101Z,8.85
2023-01-17T17:06:17.094Z,5.97
2023-01-17T17:08:44.946Z,7.35
2023-01-17T17:11:18.146Z,9.23
2023-01-17T17:13:47.177Z,7.45
2023-01-17T17:16:26.526Z,8.80
2023-01-17T17:19:02.319Z,8.20
2023-01-17T17:21:31.011Z,7.15
2023-01-17T17:23:59.648Z,9.93
2023-01-17T17:26:30.867Z,19.40
2023-01-17T17:28:58.242Z,11.23
2023-01-17T17:31:25.192Z,12.27
2023-01-17T17:33:52.254Z,11.95
2023-01-17T17:36:19.311Z,14.63
2023-01-17T17:38:53.110Z,17.40
2023-01-17T17:41:22.363Z,16.88
2023-01-17T17:43:49.528Z,13.55
2023-01-17T17:46:16.550Z,14.07
2023-01-17T17:48:43.577Z,14.45
2023-01-17T17:51:22.910Z,15.70
2023-01-17T17:53:49.885Z,15.38
2023-01-17T17:56:16.895Z,14.60
2023-01-17T17:58:46.127Z,14.90
2023-01-17T18:01:13.568Z,15.95
2023-01-17T18:03:40.752Z,15.50
2023-01-17T18:06:10.212Z,16.25
2023-01-17T18:08:38.496Z,16.58
2023-01-17T18:11:11.384Z,15.95
2023-01-17T18:13:39.002Z,15.55
2023-01-17T18:16:09.264Z,15.27
2023-01-17T18:18:38.437Z,15.15
2023-01-17T18:21:28.619Z,14.20
2023-01-17T18:24:01.873Z,14.80
2023-01-17T18:26:31.730Z,13.80
2023-01-17T18:29:00.262Z,15.10
2023-01-17T18:31:28.324Z,13.93
2023-01-17T18:33:58.096Z,13.75
2023-01-17T18:36:26.523Z,12.50
2023-01-17T18:38:53.608Z,12.85
2023-01-17T18:41:32.393Z,13.32
2023-01-17T18:43:59.280Z,14.13
2023-01-17T18:46:27.004Z,15.63
2023-01-17T18:48:57.115Z,35.20
2023-01-17T18:51:25.226Z,39.60
2023-01-17T18:53:55.349Z,90.28
2023-01-17T18:56:23.884Z,117.97
2023-01-17T18:58:51.425Z,97.65
2023-01-17T19:01:19.977Z,66.30
2023-01-17T19:03:49.105Z,47.60
2023-01-17T19:06:20.026Z,33.92
2023-01-17T19:08:49.143Z,23.08
2023-01-17T19:11:16.112Z,21.27
2023-01-17T19:13:42.999Z,21.13
2023-01-17T19:16:15.499Z,20.27
2023-01-17T19:18:42.916Z,16.70
2023-01-17T19:21:13.070Z,15.55
2023-01-17T19:23:40.532Z,13.73
2023-01-17T19:26:08.925Z,11.73
2023-01-17T19:28:40.939Z,10.77
2023-01-17T19:31:10.213Z,10.40
2023-01-17T19:33:38.862Z,9.75
2023-01-17T19:36:09.168Z,9.85
2023-01-17T19:38:38.642Z,8.05
2023-01-17T19:41:14.772Z,9.07
2023-01-17T19:43:42.720Z,7.88
2023-01-17T19:46:10.748Z,8.70
2023-01-17T19:48:39.035Z,8.27
2023-01-17T19:51:14.399Z,9.48
2023-01-17T19:53:41.968Z,11.75
2023-01-17T19:56:17.135Z,12.55
2023-01-17T19:58:46.298Z,12.23
2023-01-17T20:01:14.887Z,11.88
2023-01-17T20:03:45.243Z,12.50
2023-01-17T20:06:15.326Z,12.88
2023-01-17T20:08:43.485Z,12.50
2023-01-17T20:11:14.840Z,11.27
2023-01-17T20:13:45.477Z,11.13
2023-01-17T20:16:14.541Z,10.25
2023-01-17T20:18:41.769Z,9.48
2023-01-17T20:21:14.710Z,9.40
2023-01-17T20:23:43.365Z,9.90
2023-01-17T20:26:11.989Z,9.02
2023-01-17T20:28:41.213Z,10.13
2023-01-17T20:31:16.978Z,9.80
2023-01-17T20:33:46.910Z,8.43
2023-01-17T20:36:15.712Z,9.27
2023-01-17T20:38:43.865Z,8.48
2023-01-17T20:41:22.880Z,9.20
2023-01-17T20:43:54.762Z,9.02
2023-01-17T20:46:24.733Z,8.60
2023-01-17T20:48:54.602Z,9.35
2023-01-17T20:51:23.310Z,9.35
2023-01-17T20:53:59.251Z,9.13
2023-01-17T20:56:30.045Z,10.10
2023-01-17T20:58:57.952Z,9.30
2023-01-17T21:01:25.214Z,9.05
2023-01-17T21:03:54.054Z,9.07
2023-01-17T21:06:23.325Z,8.77
2023-01-17T21:08:51.342Z,8.38
2023-01-17T21:11:23.588Z,8.35
2023-01-17T21:13:51.598Z,8.60
2023-01-17T21:16:21.363Z,8.02
2023-01-17T21:18:50.137Z,8.40
2023-01-17T21:21:23.011Z,8.80
2023-01-17T21:23:51.278Z,8.07
2023-01-17T21:26:21.198Z,7.63
2023-01-17T21:28:49.668Z,8.23
2023-01-17T21:31:25.844Z,7.75
2023-01-17T21:33:56.805Z,7.68
2023-01-17T21:36:27.479Z,8.23
2023-01-17T21:38:57.216Z,8.00
2023-01-17T21:41:28.972Z,7.70
2023-01-17T21:43:57.815Z,7.93
2023-01-17T21:46:25.379Z,7.68
2023-01-17T21:48:52.246Z,8.00
2023-01-17T21:51:19.886Z,7.80
2023-01-17T21:53:46.742Z,8.60
2023-01-17T21:56:33.204Z,11.68
2023-01-17T21:59:01.052Z,9.38
2023-01-17T22:01:32.414Z,10.27
2023-01-17T22:04:02.885Z,9.00
2023-01-17T22:06:34.402Z,8.63
2023-01-17T22:09:01.744Z,9.48
2023-01-17T22:11:30.463Z,9.93
2023-01-17T22:13:59.204Z,9.75
2023-01-17T22:16:26.635Z,9.90
2023-01-17T22:18:53.625Z,10.30
2023-01-17T22:21:26.333Z,10.25
2023-01-17T22:23:55.437Z,11.38
2023-01-17T22:26:28.330Z,10.90
2023-01-17T22:28:55.804Z,10.50
2023-01-17T22:31:25.405Z,10.75
2023-01-17T22:33:57.829Z,10.38
2023-01-17T22:36:25.524Z,12.63
2023-01-17T22:38:52.744Z,13.77
2023-01-17T22:41:25.039Z,12.23
2023-01-17T22:43:53.847Z,13.20
2023-01-17T22:46:26.579Z,13.18
2023-01-17T22:48:55.340Z,14.73
2023-01-17T22:51:23.874Z,13.70
2023-01-17T22:53:53.568Z,12.68
2023-01-17T22:56:23.575Z,12.80
2023-01-17T22:58:50.970Z,13.68
2023-01-17T23:01:20.659Z,13.40
2023-01-17T23:03:52.409Z,13.15
2023-01-17T23:06:22.496Z,13.70
2023-01-17T23:08:51.915Z,13.18
2023-01-17T23:11:42.929Z,14.18
2023-01-17T23:14:12.591Z,12.43
2023-01-17T23:17:00.522Z,13.93
2023-01-17T23:19:31.017Z,11.57
2023-01-17T23:22:18.182Z,11.60
2023-01-17T23:25:08.652Z,10.95
2023-01-17T23:28:05.202Z,10.85
2023-01-17T23:30:38.136Z,10.18
2023-01-17T23:33:09.692Z,9.73
2023-01-17T23:35:41.709Z,9.93
2023-01-17T23:38:26.072Z,10.25
2023-01-17T23:41:17.331Z,10.65
2023-01-17T23:43:44.387Z,11.95
2023-01-17T23:46:12.564Z,11.85
2023-01-17T23:48:39.398Z,12.18
2023-01-17T23:51:09.345Z,12.05
2023-01-17T23:53:38.336Z,11.57
2023-01-17T23:56:18.701Z,10.55
2023-01-17T23:58:45.991Z,10.48
